sensor_id;sensor_type;location;lat;lon;timestamp;pressure;altitude;pressure_sealevel;temperature;humidity
49801;BME280;35698;50.232;30.540;2023-02-15T00:01:08;101350.48;;;1.80;90.69
49801;BME280;35698;50.232;30.540;2023-02-15T00:02:38;101355.66;;;1.92;90.56
49801;BME280;35698;50.232;30.540;2023-02-15T00:03:42;101355.71;;;1.77;89.58
49801;BME280;35698;50.232;30.540;2023-02-15T00:04:46;101354.82;;;1.84;90.93
49801;BME280;35698;50.232;30.540;2023-02-15T00:05:58;101357.39;;;1.92;89.87
49801;BME280;35698;50.232;30.540;2023-02-15T00:07:02;101353.97;;;1.79;90.47
49801;BME280;35698;50.232;30.540;2023-02-15T00:08:13;101350.42;;;1.97;90.26
49801;BME280;35698;50.232;30.540;2023-02-15T00:09:17;101356.52;;;1.94;89.98
49801;BME280;35698;50.232;30.540;2023-02-15T00:10:28;101368.69;;;1.91;94.07
49801;BME280;35698;50.232;30.540;2023-02-15T00:11:31;101364.39;;;1.79;94.43
49801;BME280;35698;50.232;30.540;2023-02-15T00:12:43;101354.78;;;1.95;95.40
49801;BME280;35698;50.232;30.540;2023-02-15T00:13:46;101367.83;;;1.89;95.66
49801;BME280;35698;50.232;30.540;2023-02-15T00:14:49;101362.56;;;2.01;95.53
49801;BME280;35698;50.232;30.540;2023-02-15T00:16:02;101372.92;;;2.18;95.09
49801;BME280;35698;50.232;30.540;2023-02-15T00:17:06;101364.32;;;1.97;96.57
49801;BME280;35698;50.232;30.540;2023-02-15T00:18:09;101358.22;;;2.03;96.70
49801;BME280;35698;50.232;30.540;2023-02-15T00:19:21;101359.00;;;2.22;97.05
49801;BME280;35698;50.232;30.540;2023-02-15T00:20:24;101365.12;;;2.15;96.85
49801;BME280;35698;50.232;30.540;2023-02-15T00:21:37;101364.16;;;2.31;97.48
49801;BME280;35698;50.232;30.540;2023-02-15T00:22:41;101368.58;;;2.18;98.29
49801;BME280;35698;50.232;30.540;2023-02-15T00:23:44;101365.10;;;2.18;98.53
49801;BME280;35698;50.232;30.540;2023-02-15T00:24:48;101361.61;;;2.22;99.19
49801;BME280;35698;50.232;30.540;2023-02-15T00:26:07;101358.92;;;2.36;98.14
49801;BME280;35698;50.232;30.540;2023-02-15T00:27:11;101358.94;;;2.33;97.78
49801;BME280;35698;50.232;30.540;2023-02-15T00:28:15;101365.87;;;2.35;97.04
49801;BME280;35698;50.232;30.540;2023-02-15T00:29:19;101355.44;;;2.38;96.47
49801;BME280;35698;50.232;30.540;2023-02-15T00:30:22;101369.39;;;2.28;96.83
49801;BME280;35698;50.232;30.540;2023-02-15T00:31:34;101364.11;;;2.40;96.67
49801;BME280;35698;50.232;30.540;2023-02-15T00:32:38;101367.60;;;2.38;96.38
49801;BME280;35698;50.232;30.540;2023-02-15T00:33:41;101369.31;;;2.43;95.28
49801;BME280;35698;50.232;30.540;2023-02-15T00:34:44;101364.12;;;2.39;94.81
49801;BME280;35698;50.232;30.540;2023-02-15T00:35:48;101367.61;;;2.36;95.53
49801;BME280;35698;50.232;30.540;2023-02-15T00:36:59;101360.61;;;2.44;94.89
49801;BME280;35698;50.232;30.540;2023-02-15T00:38:02;101364.11;;;2.40;95.39
49801;BME280;35698;50.232;30.540;2023-02-15T00:39:06;101364.97;;;2.42;96.17
49801;BME280;35698;50.232;30.540;2023-02-15T00:40:10;101357.97;;;2.50;95.68
49801;BME280;35698;50.232;30.540;2023-02-15T00:41:21;101356.09;;;2.66;94.56
49801;BME280;35698;50.232;30.540;2023-02-15T00:42:25;101355.30;;;2.59;94.70
49801;BME280;35698;50.232;30.540;2023-02-15T00:43:36;101371.68;;;2.75;93.32
49801;BME280;35698;50.232;30.540;2023-02-15T00:44:40;101370.03;;;2.62;92.84
49801;BME280;35698;50.232;30.540;2023-02-15T00:45:45;101363.08;;;2.61;92.51
49801;BME280;35698;50.232;30.540;2023-02-15T00:46:48;101370.02;;;2.65;92.29
49801;BME280;35698;50.232;30.540;2023-02-15T00:47:59;101371.88;;;2.49;95.49
49801;BME280;35698;50.232;30.540;2023-02-15T00:49:03;101365.89;;;2.34;97.17
49801;BME280;35698;50.232;30.540;2023-02-15T00:50:07;101361.48;;;2.43;97.79
49801;BME280;35698;50.232;30.540;2023-02-15T00:51:10;101361.50;;;2.42;98.16
49801;BME280;35698;50.232;30.540;2023-02-15T00:52:14;101362.41;;;2.33;99.55
49801;BME280;35698;50.232;30.540;2023-02-15T00:53:26;101371.91;;;2.46;99.67
49801;BME280;35698;50.232;30.540;2023-02-15T00:54:30;101364.12;;;2.37;100.00
49801;BME280;35698;50.232;30.540;2023-02-15T00:55:34;101365.02;;;2.33;100.00
49801;BME280;35698;50.232;30.540;2023-02-15T00:56:37;101360.70;;;2.29;100.00
49801;BME280;35698;50.232;30.540;2023-02-15T00:57:49;101367.59;;;2.39;100.00
49801;BME280;35698;50.232;30.540;2023-02-15T00:58:52;101370.30;;;2.21;100.00
49801;BME280;35698;50.232;30.540;2023-02-15T00:59:56;101367.67;;;2.25;100.00
49801;BME280;35698;50.232;30.540;2023-02-15T01:01:05;101371.16;;;2.23;100.00
49801;BME280;35698;50.232;30.540;2023-02-15T01:02:17;101372.87;;;2.28;100.00
49801;BME280;35698;50.232;30.540;2023-02-15T01:03:20;101381.69;;;1.98;100.00
49801;BME280;35698;50.232;30.540;2023-02-15T01:04:24;101372.98;;;2.04;100.00
49801;BME280;35698;50.232;30.540;2023-02-15T01:05:46;101375.64;;;1.89;100.00
49801;BME280;35698;50.232;30.540;2023-02-15T01:06:58;101377.27;;;2.16;100.00
49801;BME280;35698;50.232;30.540;2023-02-15T01:08:02;101380.81;;;2.01;100.00
49801;BME280;35698;50.232;30.540;2023-02-15T01:09:06;101378.23;;;1.93;100.00
49801;BME280;35698;50.232;30.540;2023-02-15T01:10:17;101368.61;;;2.11;100.00
49801;BME280;35698;50.232;30.540;2023-02-15T01:11:22;101378.22;;;1.96;100.00
49801;BME280;35698;50.232;30.540;2023-02-15T01:12:33;101370.30;;;2.19;100.00
49801;BME280;35698;50.232;30.540;2023-02-15T01:13:37;101379.89;;;2.13;100.00
49801;BME280;35698;50.232;30.540;2023-02-15T01:14:41;101378.19;;;2.06;100.00
49801;BME280;35698;50.232;30.540;2023-02-15T01:15:45;101379.02;;;2.14;100.00
49801;BME280;35698;50.232;30.540;2023-02-15T01:16:56;101372.01;;;2.26;100.00
49801;BME280;35698;50.232;30.540;2023-02-15T01:17:59;101379.03;;;2.12;100.00
49801;BME280;35698;50.232;30.540;2023-02-15T01:19:02;101373.84;;;2.06;100.00
49801;BME280;35698;50.232;30.540;2023-02-15T01:20:14;101372.91;;;2.19;100.00
49801;BME280;35698;50.232;30.540;2023-02-15T01:21:20;101367.75;;;2.09;100.00
49801;BME280;35698;50.232;30.540;2023-02-15T01:22:31;101364.20;;;2.25;100.00
49801;BME280;35698;50.232;30.540;2023-02-15T01:23:34;101379.08;;;2.02;100.00
49801;BME280;35698;50.232;30.540;2023-02-15T01:24:48;101374.69;;;2.13;100.00
49801;BME280;35698;50.232;30.540;2023-02-15T01:25:51;101370.38;;;2.04;100.00
49801;BME280;35698;50.232;30.540;2023-02-15T01:26:54;101365.15;;;2.07;99.49
49801;BME280;35698;50.232;30.540;2023-02-15T01:28:05;101379.89;;;2.13;99.84
49801;BME280;35698;50.232;30.540;2023-02-15T01:29:09;101379.09;;;1.98;100.00
49801;BME280;35698;50.232;30.540;2023-02-15T01:30:13;101372.97;;;2.06;100.00
49801;BME280;35698;50.232;30.540;2023-02-15T01:31:25;101379.02;;;2.14;100.00
49801;BME280;35698;50.232;30.540;2023-02-15T01:32:30;101381.64;;;2.11;100.00
49801;BME280;35698;50.232;30.540;2023-02-15T01:33:41;101381.55;;;2.30;100.00
49801;BME280;35698;50.232;30.540;2023-02-15T01:34:44;101379.84;;;2.23;99.10
49801;BME280;35698;50.232;30.540;2023-02-15T01:35:59;101384.11;;;2.40;98.76
49801;BME280;35698;50.232;30.540;2023-02-15T01:37:03;101382.40;;;2.34;97.77
49801;BME280;35698;50.232;30.540;2023-02-15T01:38:06;101384.98;;;2.40;95.81
49801;BME280;35698;50.232;30.540;2023-02-15T01:39:09;101384.98;;;2.40;91.47
49801;BME280;35698;50.232;30.540;2023-02-15T01:40:15;101386.76;;;2.32;90.60
49801;BME280;35698;50.232;30.540;2023-02-15T01:41:27;101385.85;;;2.39;90.93
49801;BME280;35698;50.232;30.540;2023-02-15T01:42:30;101391.09;;;2.33;89.98
49801;BME280;35698;50.232;30.540;2023-02-15T01:43:41;101384.12;;;2.38;90.27
49801;BME280;35698;50.232;30.540;2023-02-15T01:45:02;101394.45;;;2.55;90.12
49801;BME280;35698;50.232;30.540;2023-02-15T01:46:08;101390.20;;;2.37;89.42
49801;BME280;35698;50.232;30.540;2023-02-15T01:48:30;101384.22;;;2.18;90.98
49801;BME280;35698;50.232;30.540;2023-02-15T01:49:33;101374.64;;;2.22;90.19
49801;BME280;35698;50.232;30.540;2023-02-15T01:50:48;101393.66;;;2.41;90.49
49801;BME280;35698;50.232;30.540;2023-02-15T01:51:52;101379.83;;;2.28;89.30
49801;BME280;35698;50.232;30.540;2023-02-15T01:53:11;101390.18;;;2.42;88.95
49801;BME280;35698;50.232;30.540;2023-02-15T01:54:20;101381.51;;;2.38;89.91
49801;BME280;35698;50.232;30.540;2023-02-15T01:55:35;101377.94;;;2.54;86.46
49801;BME280;35698;50.232;30.540;2023-02-15T01:56:39;101384.11;;;2.40;84.57
49801;BME280;35698;50.232;30.540;2023-02-15T01:57:51;101377.97;;;2.50;84.94
49801;BME280;35698;50.232;30.540;2023-02-15T01:58:57;101378.08;;;2.30;82.75
49801;BME280;35698;50.232;30.540;2023-02-15T02:00:04;101375.44;;;2.36;84.09
49801;BME280;35698;50.232;30.540;2023-02-15T02:01:17;101374.51;;;2.46;83.00
49801;BME280;35698;50.232;30.540;2023-02-15T02:02:22;101380.65;;;2.36;82.22
49801;BME280;35698;50.232;30.540;2023-02-15T02:03:59;101375.41;;;2.41;81.11
49801;BME280;35698;50.232;30.540;2023-02-15T02:05:09;101378.83;;;2.52;77.90
49801;BME280;35698;50.232;30.540;2023-02-15T02:06:14;101382.41;;;2.33;77.50
49801;BME280;35698;50.232;30.540;2023-02-15T02:07:27;101384.99;;;2.37;76.65
49801;BME280;35698;50.232;30.540;2023-02-15T02:08:32;101383.29;;;2.30;75.47
49801;BME280;35698;50.232;30.540;2023-02-15T02:09:36;101385.91;;;2.27;75.69
49801;BME280;35698;50.232;30.540;2023-02-15T02:10:39;101382.42;;;2.29;75.52
49801;BME280;35698;50.232;30.540;2023-02-15T02:11:44;101386.78;;;2.26;75.50
49801;BME280;35698;50.232;30.540;2023-02-15T02:13:03;101377.99;;;2.45;76.34
49801;BME280;35698;50.232;30.540;2023-02-15T02:14:07;101389.36;;;2.32;75.78
49801;BME280;35698;50.232;30.540;2023-02-15T02:15:22;101385.89;;;2.32;75.13
49801;BME280;35698;50.232;30.540;2023-02-15T02:18:20;101389.39;;;2.27;74.69
49801;BME280;35698;50.232;30.540;2023-02-15T02:21:55;101402.45;;;2.21;75.53
49801;BME280;35698;50.232;30.540;2023-02-15T02:30:18;101404.17;;;2.24;74.50
49801;BME280;35698;50.232;30.540;2023-02-15T02:47:50;101397.28;;;2.11;70.74
49801;BME280;35698;50.232;30.540;2023-02-15T02:49:12;101398.14;;;2.13;71.36
49801;BME280;35698;50.232;30.540;2023-02-15T02:50:26;101406.01;;;2.01;71.31
49801;BME280;35698;50.232;30.540;2023-02-15T02:52:01;101404.29;;;1.95;70.19
49801;BME280;35698;50.232;30.540;2023-02-15T02:53:05;101405.17;;;1.89;70.93
49801;BME280;35698;50.232;30.540;2023-02-15T02:54:28;101405.16;;;1.92;70.18
49801;BME280;35698;50.232;30.540;2023-02-15T02:55:59;101403.45;;;1.87;68.80
49801;BME280;35698;50.232;30.540;2023-02-15T02:57:06;101410.48;;;1.62;67.63
49801;BME280;35698;50.232;30.540;2023-02-15T02:58:44;101415.70;;;1.57;67.25
49801;BME280;35698;50.232;30.540;2023-02-15T03:00:07;101402.67;;;1.62;67.35
49801;BME280;35698;50.232;30.540;2023-02-15T03:02:37;101404.34;;;1.75;66.19
49801;BME280;35698;50.232;30.540;2023-02-15T03:04:06;101403.52;;;1.73;66.02
49801;BME280;35698;50.232;30.540;2023-02-15T03:05:29;101396.52;;;1.81;65.83
49801;BME280;35698;50.232;30.540;2023-02-15T03:06:47;101399.03;;;2.06;66.41
49801;BME280;35698;50.232;30.540;2023-02-15T03:07:52;101404.27;;;2.03;65.65
49801;BME280;35698;50.232;30.540;2023-02-15T03:09:24;101402.53;;;2.02;65.01
49801;BME280;35698;50.232;30.540;2023-02-15T03:10:48;101401.61;;;2.15;65.12
49801;BME280;35698;50.232;30.540;2023-02-15T03:11:59;101398.92;;;2.32;64.72
49801;BME280;35698;50.232;30.540;2023-02-15T03:13:03;101403.30;;;2.26;64.18
49801;BME280;35698;50.232;30.540;2023-02-15T03:14:25;101402.42;;;2.26;63.59
49801;BME280;35698;50.232;30.540;2023-02-15T03:15:49;101399.81;;;2.27;64.15
49801;BME280;35698;50.232;30.540;2023-02-15T03:17:02;101405.81;;;2.45;63.91
49801;BME280;35698;50.232;30.540;2023-02-15T03:18:07;101402.41;;;2.30;63.48
49801;BME280;35698;50.232;30.540;2023-02-15T03:19:31;101405.05;;;2.21;63.69
49801;BME280;35698;50.232;30.540;2023-02-15T03:20:55;101408.52;;;2.23;63.71
49801;BME280;35698;50.232;30.540;2023-02-15T03:23:37;101414.59;;;2.25;63.58
49801;BME280;35698;50.232;30.540;2023-02-15T03:26:02;101414.62;;;2.21;64.05
49801;BME280;35698;50.232;30.540;2023-02-15T03:28:49;101412.05;;;2.13;63.44
49801;BME280;35698;50.232;30.540;2023-02-15T03:29:56;101412.94;;;2.06;63.62
49801;BME280;35698;50.232;30.540;2023-02-15T03:31:20;101417.25;;;2.13;63.62
49801;BME280;35698;50.232;30.540;2023-02-15T03:32:33;101414.59;;;2.28;63.84
49801;BME280;35698;50.232;30.540;2023-02-15T03:33:40;101419.82;;;2.24;63.40
49801;BME280;35698;50.232;30.540;2023-02-15T03:34:52;101424.09;;;2.40;63.19
49801;BME280;35698;50.232;30.540;2023-02-15T03:36:08;101428.56;;;2.09;63.11
49801;BME280;35698;50.232;30.540;2023-02-15T03:38:34;101431.18;;;2.06;63.31
49801;BME280;35698;50.232;30.540;2023-02-15T03:41:31;101425.09;;;2.07;63.77
49801;BME280;35698;50.232;30.540;2023-02-15T03:42:42;101425.93;;;2.17;63.48
49801;BME280;35698;50.232;30.540;2023-02-15T03:45:05;101424.25;;;2.01;64.06
49801;BME280;35698;50.232;30.540;2023-02-15T03:46:18;101425.98;;;2.02;64.45
49801;BME280;35698;50.232;30.540;2023-02-15T03:50:36;101427.66;;;2.18;64.33
49801;BME280;35698;50.232;30.540;2023-02-15T03:51:43;101429.45;;;2.04;63.89
49801;BME280;35698;50.232;30.540;2023-02-15T03:52:57;101437.22;;;2.17;64.06
49801;BME280;35698;50.232;30.540;2023-02-15T03:55:27;101433.77;;;2.11;64.59
49801;BME280;35698;50.232;30.540;2023-02-15T03:56:41;101428.53;;;2.17;64.42
49801;BME280;35698;50.232;30.540;2023-02-15T03:57:45;101437.25;;;2.08;64.40
49801;BME280;35698;50.232;30.540;2023-02-15T03:58:56;101434.61;;;2.20;64.55
49801;BME280;35698;50.232;30.540;2023-02-15T04:00:02;101430.30;;;2.10;64.57
49801;BME280;35698;50.232;30.540;2023-02-15T04:01:32;101434.59;;;2.25;64.47
49801;BME280;35698;50.232;30.540;2023-02-15T04:04:03;101438.13;;;2.06;64.44
49801;BME280;35698;50.232;30.540;2023-02-15T04:06:28;101439.05;;;1.88;64.75
49801;BME280;35698;50.232;30.540;2023-02-15T04:07:39;101444.28;;;1.80;63.82
49801;BME280;35698;50.232;30.540;2023-02-15T04:08:43;101432.20;;;1.58;64.54
49801;BME280;35698;50.232;30.540;2023-02-15T04:09:46;101434.81;;;1.50;65.39
49801;BME280;35698;50.232;30.540;2023-02-15T04:10:57;101432.12;;;1.78;65.54
49801;BME280;35698;50.232;30.540;2023-02-15T04:12:00;101426.92;;;1.76;65.67
49801;BME280;35698;50.232;30.540;2023-02-15T04:13:04;101439.94;;;1.79;65.52
49801;BME280;35698;50.232;30.540;2023-02-15T04:14:07;101442.53;;;1.85;64.89
49801;BME280;35698;50.232;30.540;2023-02-15T04:15:14;101431.26;;;1.79;64.04
49801;BME280;35698;50.232;30.540;2023-02-15T04:16:25;101439.91;;;1.94;63.97
49801;BME280;35698;50.232;30.540;2023-02-15T04:17:29;101437.31;;;1.91;64.24
49801;BME280;35698;50.232;30.540;2023-02-15T04:18:40;101438.16;;;1.98;64.30
49801;BME280;35698;50.232;30.540;2023-02-15T04:19:44;101432.08;;;1.99;63.68
49801;BME280;35698;50.232;30.540;2023-02-15T04:20:47;101444.27;;;1.89;63.44
49801;BME280;35698;50.232;30.540;2023-02-15T04:21:58;101444.21;;;2.08;64.03
49801;BME280;35698;50.232;30.540;2023-02-15T04:23:05;101460.75;;;1.96;63.44
49801;BME280;35698;50.232;30.540;2023-02-15T04:24:09;101442.53;;;1.87;63.67
49801;BME280;35698;50.232;30.540;2023-02-15T04:25:13;101440.77;;;1.96;63.76
49801;BME280;35698;50.232;30.540;2023-02-15T04:26:25;101446.82;;;2.06;63.44
49801;BME280;35698;50.232;30.540;2023-02-15T04:27:28;101448.59;;;1.92;63.53
49801;BME280;35698;50.232;30.540;2023-02-15T04:28:32;101443.37;;;1.96;63.73
49801;BME280;35698;50.232;30.540;2023-02-15T04:29:36;101443.37;;;1.98;63.64
49801;BME280;35698;50.232;30.540;2023-02-15T04:30:48;101442.47;;;2.08;64.01
49801;BME280;35698;50.232;30.540;2023-02-15T04:31:53;101442.50;;;1.97;63.50
49801;BME280;35698;50.232;30.540;2023-02-15T04:33:04;101442.47;;;2.10;63.34
49801;BME280;35698;50.232;30.540;2023-02-15T04:34:08;101448.59;;;1.96;63.50
49801;BME280;35698;50.232;30.540;2023-02-15T04:35:19;101445.04;;;2.19;63.82
49801;BME280;35698;50.232;30.540;2023-02-15T04:36:22;101448.53;;;2.13;63.60
49801;BME280;35698;50.232;30.540;2023-02-15T04:37:26;101448.59;;;1.96;63.11
49801;BME280;35698;50.232;30.540;2023-02-15T04:38:29;101452.91;;;2.05;63.35
49801;BME280;35698;50.232;30.540;2023-02-15T04:39:33;101448.55;;;2.09;63.27
49801;BME280;35698;50.232;30.540;2023-02-15T04:40:51;101453.70;;;2.27;63.37
49801;BME280;35698;50.232;30.540;2023-02-15T04:41:54;101444.19;;;2.14;63.01
49801;BME280;35698;50.232;30.540;2023-02-15T04:43:06;101460.71;;;2.10;63.57
49801;BME280;35698;50.232;30.540;2023-02-15T04:44:09;101456.43;;;1.86;63.92
49801;BME280;35698;50.232;30.540;2023-02-15T04:45:20;101457.23;;;2.09;63.70
49801;BME280;35698;50.232;30.540;2023-02-15T04:46:24;101456.39;;;2.01;63.65
49801;BME280;35698;50.232;30.540;2023-02-15T04:47:45;101453.80;;;1.93;63.59
49801;BME280;35698;50.232;30.540;2023-02-15T04:48:57;101450.27;;;2.13;63.69
49801;BME280;35698;50.232;30.540;2023-02-15T04:50:00;101442.48;;;2.02;63.94
49801;BME280;35698;50.232;30.540;2023-02-15T04:51:23;101447.72;;;1.97;63.77
49801;BME280;35698;50.232;30.540;2023-02-15T04:52:34;101440.72;;;2.13;63.60
49801;BME280;35698;50.232;30.540;2023-02-15T04:53:37;101444.24;;;1.97;63.80
49801;BME280;35698;50.232;30.540;2023-02-15T04:54:59;101446.86;;;1.91;63.77
49801;BME280;35698;50.232;30.540;2023-02-15T04:56:11;101453.77;;;2.09;64.29
49801;BME280;35698;50.232;30.540;2023-02-15T04:57:14;101454.66;;;2.00;64.42
49801;BME280;35698;50.232;30.540;2023-02-15T04:58:36;101452.94;;;1.91;64.08
49801;BME280;35698;50.232;30.540;2023-02-15T04:59:39;101451.23;;;1.80;64.35
49801;BME280;35698;50.232;30.540;2023-02-15T05:00:42;101458.17;;;1.82;64.48
49801;BME280;35698;50.232;30.540;2023-02-15T05:01:54;101452.92;;;2.01;64.67
49801;BME280;35698;50.232;30.540;2023-02-15T05:02:57;101452.09;;;1.85;64.66
49801;BME280;35698;50.232;30.540;2023-02-15T05:04:19;101454.67;;;1.94;64.63
49801;BME280;35698;50.232;30.540;2023-02-15T05:05:22;101452.07;;;1.92;64.99
49801;BME280;35698;50.232;30.540;2023-02-15T05:06:33;101454.70;;;1.77;65.46
49801;BME280;35698;50.232;30.540;2023-02-15T05:07:36;101451.28;;;1.72;65.99
49801;BME280;35698;50.232;30.540;2023-02-15T05:08:58;101458.18;;;1.78;65.94
49801;BME280;35698;50.232;30.540;2023-02-15T05:10:01;101455.58;;;1.78;65.96
49801;BME280;35698;50.232;30.540;2023-02-15T05:11:13;101455.54;;;1.94;66.14
49801;BME280;35698;50.232;30.540;2023-02-15T05:12:17;101447.75;;;1.81;65.84
49801;BME280;35698;50.232;30.540;2023-02-15T05:13:38;101461.65;;;1.81;66.40
49801;BME280;35698;50.232;30.540;2023-02-15T05:14:42;101451.28;;;1.68;66.42
49801;BME280;35698;50.232;30.540;2023-02-15T05:15:53;101458.22;;;1.73;66.85
49801;BME280;35698;50.232;30.540;2023-02-15T05:16:57;101466.05;;;1.62;67.37
49801;BME280;35698;50.232;30.540;2023-02-15T05:37:31;101466.05;;;1.61;67.40
49801;BME280;35698;50.232;30.540;2023-02-15T05:38:42;101481.67;;;1.21;85.11
49801;BME280;35698;50.232;30.540;2023-02-15T05:39:45;101484.27;;;1.18;85.42
49801;BME280;35698;50.232;30.540;2023-02-15T05:40:50;101492.06;;;1.08;84.61
49801;BME280;35698;50.232;30.540;2023-02-15T05:42:02;101495.56;;;1.25;84.19
49801;BME280;35698;50.232;30.540;2023-02-15T05:43:05;101486.88;;;1.17;84.42
49801;BME280;35698;50.232;30.540;2023-02-15T05:44:09;101486.87;;;1.11;84.66
49801;BME280;35698;50.232;30.540;2023-02-15T05:45:20;101493.83;;;1.25;85.60
49801;BME280;35698;50.232;30.540;2023-02-15T05:46:23;101475.59;;;1.13;85.53
49801;BME280;35698;50.232;30.540;2023-02-15T05:47:34;101487.76;;;1.37;84.67
49801;BME280;35698;50.232;30.540;2023-02-15T05:48:38;101485.15;;;1.28;83.39
49801;BME280;35698;50.232;30.540;2023-02-15T05:49:41;101483.41;;;1.28;82.65
49801;BME280;35698;50.232;30.540;2023-02-15T05:51:01;101481.69;;;1.47;82.39
49801;BME280;35698;50.232;30.540;2023-02-15T05:52:05;101489.50;;;1.40;82.61
49801;BME280;35698;50.232;30.540;2023-02-15T05:53:16;101479.08;;;1.58;83.19
49801;BME280;35698;50.232;30.540;2023-02-15T05:54:20;101491.23;;;1.48;81.56
49801;BME280;35698;50.232;30.540;2023-02-15T05:55:23;101492.97;;;1.45;80.76
49801;BME280;35698;50.232;30.540;2023-02-15T05:56:35;101501.63;;;1.24;79.76
49801;BME280;35698;50.232;30.540;2023-02-15T05:57:38;101491.22;;;1.22;79.17
49801;BME280;35698;50.232;30.540;2023-02-15T05:58:52;101500.77;;;1.29;81.55
49801;BME280;35698;50.232;30.540;2023-02-15T05:59:56;101498.16;;;1.23;80.35
49801;BME280;35698;50.232;30.540;2023-02-15T06:01:16;101498.17;;;1.45;80.55
49801;BME280;35698;50.232;30.540;2023-02-15T06:02:19;101514.66;;;1.31;79.57
49801;BME280;35698;50.232;30.540;2023-02-15T06:04:44;101514.66;;;1.28;79.42
49801;BME280;35698;50.232;30.540;2023-02-15T06:05:47;101512.92;;;1.40;80.10
49801;BME280;35698;50.232;30.540;2023-02-15T06:06:58;101509.46;;;1.48;78.08
49801;BME280;35698;50.232;30.540;2023-02-15T06:08:02;101513.80;;;1.43;76.21
49801;BME280;35698;50.232;30.540;2023-02-15T06:09:07;101509.46;;;1.53;75.88
49801;BME280;35698;50.232;30.540;2023-02-15T06:10:12;101511.20;;;1.60;76.20
49801;BME280;35698;50.232;30.540;2023-02-15T06:11:24;101518.14;;;1.67;74.78
49801;BME280;35698;50.232;30.540;2023-02-15T06:12:28;101520.75;;;1.58;74.40
49801;BME280;35698;50.232;30.540;2023-02-15T06:13:32;101519.88;;;1.71;74.70
49801;BME280;35698;50.232;30.540;2023-02-15T06:14:43;101523.31;;;1.78;72.59
49801;BME280;35698;50.232;30.540;2023-02-15T06:15:46;101520.70;;;1.76;71.70
49801;BME280;35698;50.232;30.540;2023-02-15T06:16:58;101520.70;;;1.82;71.43
49801;BME280;35698;50.232;30.540;2023-02-15T06:18:01;101524.17;;;1.84;71.38
49801;BME280;35698;50.232;30.540;2023-02-15T06:19:06;101518.96;;;1.84;69.14
49801;BME280;35698;50.232;30.540;2023-02-15T06:20:11;101514.63;;;1.86;68.48
49801;BME280;35698;50.232;30.540;2023-02-15T06:21:17;101526.77;;;1.96;68.79
49801;BME280;35698;50.232;30.540;2023-02-15T06:22:29;101526.75;;;2.06;65.62
49801;BME280;35698;50.232;30.540;2023-02-15T06:23:33;101523.29;;;1.97;65.38
49801;BME280;35698;50.232;30.540;2023-02-15T06:24:37;101518.94;;;2.04;65.63
49801;BME280;35698;50.232;30.540;2023-02-15T06:25:41;101521.56;;;1.87;65.32
49801;BME280;35698;50.232;30.540;2023-02-15T06:26:52;101518.94;;;2.06;65.80
49801;BME280;35698;50.232;30.540;2023-02-15T06:27:56;101513.71;;;2.10;65.82
49801;BME280;35698;50.232;30.540;2023-02-15T06:29:00;101517.16;;;2.24;65.46
49801;BME280;35698;50.232;30.540;2023-02-15T06:30:12;101516.27;;;2.32;64.33
49801;BME280;35698;50.232;30.540;2023-02-15T06:31:16;101525.83;;;2.28;64.55
49801;BME280;35698;50.232;30.540;2023-02-15T06:32:35;101519.74;;;2.30;63.38
49801;BME280;35698;50.232;30.540;2023-02-15T06:33:38;101521.50;;;2.24;63.38
49801;BME280;35698;50.232;30.540;2023-02-15T06:34:50;101537.11;;;2.36;62.65
49801;BME280;35698;50.232;30.540;2023-02-15T06:35:53;101519.78;;;2.14;61.96
49801;BME280;35698;50.232;30.540;2023-02-15T06:37:05;101524.16;;;1.98;62.37
49801;BME280;35698;50.232;30.540;2023-02-15T06:38:08;101524.17;;;1.90;62.67
49801;BME280;35698;50.232;30.540;2023-02-15T06:39:12;101517.20;;;1.98;62.90
49801;BME280;35698;50.232;30.540;2023-02-15T06:40:26;101513.72;;;2.09;62.29
49801;BME280;35698;50.232;30.540;2023-02-15T06:41:29;101529.38;;;1.98;62.69
49801;BME280;35698;50.232;30.540;2023-02-15T06:42:45;101525.87;;;2.13;62.71
49801;BME280;35698;50.232;30.540;2023-02-15T06:43:49;101518.08;;;1.97;61.94
49801;BME280;35698;50.232;30.540;2023-02-15T06:44:53;101513.72;;;2.04;61.69
49801;BME280;35698;50.232;30.540;2023-02-15T06:46:16;101516.32;;;2.09;61.54
49801;BME280;35698;50.232;30.540;2023-02-15T06:47:27;101527.63;;;1.98;61.73
49801;BME280;35698;50.232;30.540;2023-02-15T06:48:31;101517.23;;;1.80;61.71
49801;BME280;35698;50.232;30.540;2023-02-15T06:49:34;101530.25;;;1.91;61.50
49801;BME280;35698;50.232;30.540;2023-02-15T06:50:56;101522.48;;;1.50;61.02
49801;BME280;35698;50.232;30.540;2023-02-15T06:52:07;101514.63;;;1.79;61.78
49801;BME280;35698;50.232;30.540;2023-02-15T06:53:11;101515.53;;;1.70;61.63
49801;BME280;35698;50.232;30.540;2023-02-15T06:54:14;101518.97;;;1.77;61.45
49801;BME280;35698;50.232;30.540;2023-02-15T06:55:36;101515.49;;;1.82;61.45
49801;BME280;35698;50.232;30.540;2023-02-15T06:56:48;101511.13;;;2.00;61.32
49801;BME280;35698;50.232;30.540;2023-02-15T06:57:51;101516.34;;;1.98;61.47
49801;BME280;35698;50.232;30.540;2023-02-15T06:59:03;101518.05;;;2.11;61.03
49801;BME280;35698;50.232;30.540;2023-02-15T07:00:07;101517.20;;;1.98;61.27
49801;BME280;35698;50.232;30.540;2023-02-15T07:01:19;101506.75;;;2.15;61.61
49801;BME280;35698;50.232;30.540;2023-02-15T07:02:22;101516.34;;;1.93;61.64
49801;BME280;35698;50.232;30.540;2023-02-15T07:03:35;101519.81;;;2.00;60.74
49801;BME280;35698;50.232;30.540;2023-02-15T07:04:43;101501.59;;;1.86;60.82
49801;BME280;35698;50.232;30.540;2023-02-15T07:05:57;101492.86;;;2.09;61.61
49801;BME280;35698;50.232;30.540;2023-02-15T07:07:02;101500.70;;;2.01;60.90